»·PEaware :: N973DM KSNA-KVNY

N973DM :: KSNA-KVNY

FLIGHT INFORMATION

Flight Status: Arrived
Operator: Privately registered:
United States
More flights under this callsign
Pilot: Anonymous 1328 (1328)
Aircraft: CIRRUS SR-20
(SR20)
More flights by this aircraft type
Origin: KSNA John Wayne-Orange Co
United States
Destination: KVNY Van Nuys
United States
More flights between these airports :: More routes between these airports
Route: + SLI V23 POPPR SMO125R SMO SMO317R CANOG
File this flight plan on PilotEdge
Remarks: VOR 25 IF AVAILABLE, VIA ANY IAF
Altitude:
(Current/Filed)
4,000ft
Speed:
(Current/Filed)
145kts
Departed: 21-Jan-13 03:40 PM
Arrived: 21-Jan-13 04:40 PM
Distance/Time
Traveled:
44nm/0:59
Distance/Time
To Go:
Arrived

Flight Plot

Page will automatically refresh every two minutes.

Flight plan parsing failed; only flown route is shown


Map Options




Map Legend


Flown Route
Filed Route
Departure Airport
Arrival Airport
Navaid (VOR, NDB)
Fix

Horizontal Profiles

Position Reports

Time Latitude Longitude Heading Altitude Ground
Speed
21-Jan-13 15:12 33.673557 -117.872246 290 58ft 0kts
21-Jan-13 15:13 33.673557 -117.872246 290 58ft 0kts
21-Jan-13 15:14 33.673557 -117.872246 290 58ft 0kts
21-Jan-13 15:15 33.673557 -117.872246 290 58ft 0kts
21-Jan-13 15:16 33.673557 -117.872246 290 58ft 0kts
21-Jan-13 15:17 33.673557 -117.872246 290 58ft 0kts
21-Jan-13 15:18 33.673557 -117.872246 290 58ft 0kts
21-Jan-13 15:19 33.673557 -117.872246 290 58ft 0kts
21-Jan-13 15:20 33.673557 -117.872246 290 58ft 0kts
21-Jan-13 15:21 33.673557 -117.872246 290 58ft 0kts
21-Jan-13 15:22 33.673557 -117.872246 290 58ft 0kts
21-Jan-13 15:23 33.673557 -117.872246 290 58ft 0kts
21-Jan-13 15:24 33.673557 -117.872246 290 58ft 0kts
21-Jan-13 15:25 33.673557 -117.872246 290 58ft 0kts
21-Jan-13 15:26 33.673557 -117.872246 290 58ft 0kts
21-Jan-13 15:27 33.673557 -117.872246 290 58ft 0kts
21-Jan-13 15:28 33.673557 -117.872246 290 58ft 0kts
21-Jan-13 15:29 33.673557 -117.872246 290 58ft 0kts
21-Jan-13 15:30 33.673557 -117.872246 290 58ft 0kts
21-Jan-13 15:31 33.673557 -117.872246 290 58ft 0kts
21-Jan-13 15:32 33.673557 -117.872246 290 58ft 0kts
21-Jan-13 15:33 33.673557 -117.872246 290 58ft 0kts
21-Jan-13 15:34 33.673557 -117.872246 290 58ft 0kts
21-Jan-13 15:35 33.673684 -117.873349 272 58ft 9kts
21-Jan-13 15:36 33.681420 -117.866729 123 58ft 0kts
21-Jan-13 15:37 33.681420 -117.866729 123 58ft 0kts
21-Jan-13 15:38 33.681420 -117.866729 123 58ft 0kts
21-Jan-13 15:39 33.680791 -117.865345 212 58ft 29kts
21-Jan-13 15:40 33.663094 -117.882351 233 663ft 98kts
21-Jan-13 15:41 33.646558 -117.911733 232 1535ft 105kts
21-Jan-13 15:42 33.628458 -117.939797 235 2384ft 112kts
21-Jan-13 15:43 33.621494 -117.973321 303 3158ft 116kts
21-Jan-13 15:44 33.649982 -117.988696 332 3837ft 123kts
21-Jan-13 15:45 33.686841 -118.005162 340 3710ft 161kts
21-Jan-13 15:46 33.726638 -118.025468 337 3814ft 156kts
21-Jan-13 15:47 33.765635 -118.045672 336 3802ft 148kts
21-Jan-13 15:48 33.790252 -118.080234 282 3802ft 145kts
21-Jan-13 15:49 33.801504 -118.126750 287 3803ft 145kts
21-Jan-13 15:50 33.813517 -118.174006 287 3803ft 149kts
21-Jan-13 15:51 33.825798 -118.221690 286 3803ft 149kts
21-Jan-13 15:52 33.838008 -118.269619 286 3803ft 149kts
21-Jan-13 15:53 33.862367 -118.307990 320 3803ft 149kts
21-Jan-13 15:54 33.894072 -118.339782 320 3863ft 148kts
21-Jan-13 15:55 33.925940 -118.371794 320 3863ft 149kts
21-Jan-13 15:56 33.957834 -118.403866 320 3863ft 149kts
21-Jan-13 15:57 33.989736 -118.435979 320 3863ft 149kts
21-Jan-13 15:58 34.023380 -118.465262 332 3863ft 149kts
21-Jan-13 15:59 34.060081 -118.488757 331 3863ft 149kts
21-Jan-13 16:00 34.096234 -118.512034 331 3862ft 143kts
21-Jan-13 16:01 34.130804 -118.534334 331 3863ft 140kts
21-Jan-13 16:02 34.163090 -118.559786 320 3863ft 139kts
21-Jan-13 16:03 34.197511 -118.566819 10 3852ft 130kts
21-Jan-13 16:04 34.231444 -118.561647 317 3851ft 126kts
21-Jan-13 16:05 34.227971 -118.593861 232 3838ft 124kts
21-Jan-13 16:06 34.219464 -118.629943 266 3991ft 114kts
21-Jan-13 16:07 34.208682 -118.644022 82 3618ft 138kts
21-Jan-13 16:08 34.220978 -118.600353 85 3384ft 132kts
21-Jan-13 16:09 34.223523 -118.550331 87 2022ft 159kts
21-Jan-13 16:10 34.223500 -118.502307 91 1083ft 105kts
21-Jan-13 16:11 34.223823 -118.468700 85 1315ft 115kts
21-Jan-13 16:12 34.217233 -118.433219 131 2242ft 111kts
21-Jan-13 16:13 34.194328 -118.407568 129 3098ft 110kts
21-Jan-13 16:14 34.172881 -118.377598 125 3715ft 122kts
21-Jan-13 16:15 34.146560 -118.351921 148 4379ft 118kts
21-Jan-13 16:16 34.124972 -118.314398 114 4481ft 134kts
21-Jan-13 16:17 34.098667 -118.324001 264 5181ft 126kts
21-Jan-13 16:18 34.100984 -118.366803 275 5596ft 140kts
21-Jan-13 16:19 34.085681 -118.409856 294 5585ft 153kts
21-Jan-13 16:20 34.110016 -118.452783 304 5590ft 156kts
21-Jan-13 16:21 34.134867 -118.495817 304 5590ft 156kts
21-Jan-13 16:22 34.159807 -118.539033 304 5590ft 156kts
21-Jan-13 16:23 34.184650 -118.582108 304 5590ft 156kts
21-Jan-13 16:24 34.209503 -118.625147 307 5589ft 156kts
21-Jan-13 16:25 34.250373 -118.626792 13 5590ft 156kts
21-Jan-13 16:26 34.292512 -118.614188 13 5590ft 156kts
21-Jan-13 16:27 34.335206 -118.608409 352 5590ft 156kts
21-Jan-13 16:28 34.378352 -118.614904 352 5590ft 156kts
21-Jan-13 16:29 34.420729 -118.612346 18 5589ft 156kts
21-Jan-13 16:30 34.445477 -118.573762 68 5421ft 156kts
21-Jan-13 16:31 34.434433 -118.526856 142 4904ft 154kts
21-Jan-13 16:32 34.408205 -118.489057 134 4650ft 153kts
21-Jan-13 16:33 34.376019 -118.464246 193 4366ft 157kts
21-Jan-13 16:34 34.335124 -118.479391 197 3681ft 133kts
21-Jan-13 16:35 34.303356 -118.487730 189 2943ft 111kts
21-Jan-13 16:36 34.275451 -118.492233 166 2375ft 104kts
21-Jan-13 16:37 34.246965 -118.490952 178 1658ft 109kts
21-Jan-13 16:38 34.218327 -118.490419 172 1052ft 94kts
21-Jan-13 16:39 34.198479 -118.483732 189 859ft 71kts
21-Jan-13 16:40 34.186616 -118.493821 209 724ft 25kts
21-Jan-13 16:41 34.186011 -118.494193 202 722ft 0kts

Navigation Log

Ident Type
Flight plan parsing failed, navigation log unavailable